createdAt,value
2019-04-06T00:00:09.665Z,34.50
2019-04-06T00:02:39.976Z,35.75
2019-04-06T00:05:09.671Z,37.98
2019-04-06T00:07:38.655Z,36.05
2019-04-06T00:10:07.740Z,35.95
2019-04-06T00:12:36.536Z,33.40
2019-04-06T00:15:07.176Z,33.48
2019-04-06T00:17:35.938Z,34.78
2019-04-06T00:20:07.160Z,35.25
2019-04-06T00:22:36.095Z,35.95
2019-04-06T00:25:06.597Z,35.28
2019-04-06T00:27:35.417Z,35.70
2019-04-06T00:30:05.777Z,35.92
2019-04-06T00:32:36.096Z,35.60
2019-04-06T00:35:06.055Z,36.53
2019-04-06T00:37:34.896Z,37.05
2019-04-06T00:40:04.700Z,35.78
2019-04-06T00:42:33.496Z,36.17
2019-04-06T00:45:02.349Z,35.03
2019-04-06T00:47:31.236Z,36.60
2019-04-06T00:50:00.101Z,36.42
2019-04-06T00:52:28.935Z,35.00
2019-04-06T00:54:57.737Z,37.25
2019-04-06T00:57:27.502Z,35.68
2019-04-06T00:59:56.336Z,37.48
2019-04-06T01:02:25.096Z,34.50
2019-04-06T01:04:53.896Z,36.88
2019-04-06T01:07:23.248Z,35.70
2019-04-06T01:09:52.298Z,37.30
2019-04-06T01:12:21.097Z,35.50
2019-04-06T01:14:49.935Z,36.53
2019-04-06T01:17:18.705Z,38.75
2019-04-06T01:19:47.495Z,36.17
2019-04-06T01:22:16.337Z,35.35
2019-04-06T01:24:45.099Z,36.80
2019-04-06T01:27:13.858Z,36.33
2019-04-06T01:29:42.695Z,38.05
2019-04-06T01:32:11.552Z,40.92
2019-04-06T01:34:40.379Z,41.15
2019-04-06T01:37:09.215Z,41.55
2019-04-06T01:39:38.017Z,40.88
2019-04-06T01:42:06.770Z,39.53
2019-04-06T01:44:35.617Z,39.33
2019-04-06T01:47:04.348Z,38.53
2019-04-06T01:49:33.176Z,39.33
2019-04-06T01:52:01.962Z,38.98
2019-04-06T01:54:30.777Z,38.38
2019-04-06T01:56:59.536Z,38.98
2019-04-06T01:59:28.337Z,39.45
2019-04-06T02:02:04.752Z,37.88
2019-04-06T02:04:33.657Z,36.77
2019-04-06T02:07:02.455Z,37.58
2019-04-06T02:09:31.337Z,38.30
2019-04-06T02:12:00.216Z,37.85
2019-04-06T02:14:29.032Z,39.92
2019-04-06T02:16:57.821Z,38.42
2019-04-06T02:19:26.700Z,39.27
2019-04-06T02:21:55.576Z,38.85
2019-04-06T02:24:24.504Z,38.00
2019-04-06T02:26:53.421Z,43.08
2019-04-06T02:29:22.411Z,39.30
2019-04-06T02:31:58.618Z,38.42
2019-04-06T02:34:45.427Z,38.90
2019-04-06T02:37:19.038Z,36.80
2019-04-06T02:39:52.338Z,37.13
2019-04-06T02:42:22.709Z,37.85
2019-04-06T02:44:51.621Z,38.10
2019-04-06T02:47:20.376Z,38.42
2019-04-06T02:49:49.185Z,41.68
2019-04-06T02:52:18.121Z,40.55
2019-04-06T02:54:46.977Z,41.45
2019-04-06T02:57:15.861Z,35.70
2019-04-06T02:59:44.700Z,37.88
2019-04-06T03:02:13.622Z,37.28
2019-04-06T03:04:42.701Z,37.17
2019-04-06T03:07:11.537Z,37.73
2019-04-06T03:09:40.418Z,38.30
2019-04-06T03:12:09.219Z,38.98
2019-04-06T03:14:38.456Z,38.75
2019-04-06T03:17:07.306Z,40.25
2019-04-06T03:19:36.177Z,42.08
2019-04-06T03:22:05.385Z,40.45
2019-04-06T03:24:34.460Z,43.70
2019-04-06T03:27:03.341Z,42.67
2019-04-06T03:29:32.150Z,41.90
2019-04-06T03:32:01.644Z,40.08
2019-04-06T03:34:30.539Z,39.70
2019-04-06T03:36:59.553Z,39.67
2019-04-06T03:39:28.344Z,39.80
2019-04-06T03:41:57.561Z,37.80
2019-04-06T03:44:26.422Z,39.50
2019-04-06T03:46:55.258Z,39.30
2019-04-06T03:49:24.097Z,40.30
2019-04-06T03:51:52.937Z,39.78
2019-04-06T03:54:21.888Z,39.98
2019-04-06T03:56:50.858Z,40.60
2019-04-06T03:59:19.936Z,39.65
2019-04-06T04:01:48.765Z,40.05
2019-04-06T04:04:17.619Z,40.38
2019-04-06T04:06:46.480Z,40.28
2019-04-06T04:09:15.656Z,41.98
2019-04-06T04:11:44.416Z,39.78
2019-04-06T04:14:13.255Z,42.05
2019-04-06T04:16:42.064Z,41.68
2019-04-06T04:19:10.991Z,40.38
2019-04-06T04:21:39.855Z,41.53
2019-04-06T04:24:08.618Z,39.80
2019-04-06T04:26:37.453Z,41.98
2019-04-06T04:29:06.499Z,42.75
2019-04-06T04:31:35.317Z,40.38
2019-04-06T04:34:04.179Z,40.25
2019-04-06T04:36:33.016Z,41.00
2019-04-06T04:39:02.369Z,41.90
2019-04-06T04:41:31.217Z,43.58
2019-04-06T04:44:00.057Z,42.53
2019-04-06T04:46:28.817Z,40.15
2019-04-06T04:48:57.578Z,41.00
2019-04-06T04:51:26.706Z,41.15
2019-04-06T04:53:55.496Z,43.95
2019-04-06T04:56:24.295Z,41.40
2019-04-06T04:58:53.248Z,40.40
2019-04-06T05:01:22.016Z,40.50
2019-04-06T05:03:50.857Z,41.30
2019-04-06T05:06:19.696Z,42.10
2019-04-06T05:08:48.458Z,41.08
2019-04-06T05:11:17.258Z,40.40
2019-04-06T05:13:46.096Z,40.70
2019-04-06T05:16:15.216Z,42.78
2019-04-06T05:18:44.377Z,41.85
2019-04-06T05:21:13.892Z,44.35
2019-04-06T05:23:42.695Z,42.65
2019-04-06T05:26:11.496Z,40.65
2019-04-06T05:28:40.337Z,40.20
2019-04-06T05:31:09.136Z,37.55
2019-04-06T05:33:38.151Z,38.50
2019-04-06T05:36:07.284Z,39.75
2019-04-06T05:38:36.360Z,43.15
2019-04-06T05:41:05.218Z,41.58
2019-04-06T05:43:34.146Z,41.30
2019-04-06T05:46:02.935Z,42.62
2019-04-06T05:48:31.699Z,41.92
2019-04-06T05:51:00.535Z,42.43
2019-04-06T05:53:29.300Z,42.65
2019-04-06T05:55:58.141Z,40.35
2019-04-06T05:58:27.107Z,41.88
2019-04-06T06:00:55.896Z,41.80
2019-04-06T06:03:24.655Z,43.35
2019-04-06T06:05:53.496Z,43.15
2019-04-06T06:08:22.295Z,42.73
2019-04-06T06:10:51.067Z,41.90
2019-04-06T06:13:19.896Z,40.80
2019-04-06T06:15:48.655Z,40.05
2019-04-06T06:18:25.606Z,39.85
2019-04-06T06:20:48.447Z,40.12
2019-04-06T06:23:18.838Z,41.50
2019-04-06T06:25:48.053Z,42.17
2019-04-06T06:28:19.048Z,41.88
2019-04-06T06:30:47.856Z,40.78
2019-04-06T06:33:16.939Z,41.02
2019-04-06T06:35:45.734Z,41.45
2019-04-06T06:38:14.855Z,41.53
2019-04-06T06:40:43.583Z,40.88
2019-04-06T06:43:12.455Z,39.03
2019-04-06T06:45:41.255Z,40.75
2019-04-06T06:48:10.056Z,39.10
2019-04-06T06:50:38.898Z,38.17
2019-04-06T06:53:07.611Z,39.05
2019-04-06T06:55:40.311Z,37.65
2019-04-06T06:58:09.175Z,38.23
2019-04-06T07:00:37.975Z,38.30
2019-04-06T07:03:06.819Z,37.75
2019-04-06T07:05:35.658Z,37.85
2019-04-06T07:08:04.505Z,38.67
2019-04-06T07:10:33.335Z,38.20
2019-04-06T07:13:15.424Z,37.28
2019-04-06T07:15:52.308Z,39.40
2019-04-06T07:18:22.058Z,37.38
2019-04-06T07:20:56.361Z,39.27
2019-04-06T07:23:25.496Z,38.02
2019-04-06T07:25:58.570Z,39.75
2019-04-06T07:28:36.323Z,39.55
2019-04-06T07:30:56.809Z,38.48
2019-04-06T07:33:25.616Z,39.18
2019-04-06T07:35:54.417Z,38.78
2019-04-06T07:38:23.260Z,39.67
2019-04-06T07:40:52.069Z,40.20
2019-04-06T07:43:20.817Z,39.25
2019-04-06T07:45:49.695Z,40.28
2019-04-06T07:48:18.698Z,42.55
2019-04-06T07:50:47.584Z,40.45
2019-04-06T07:53:16.417Z,38.83
2019-04-06T07:55:45.176Z,39.98
2019-04-06T07:58:13.963Z,39.27
2019-04-06T08:00:42.815Z,38.92
2019-04-06T08:03:11.575Z,39.45
2019-04-06T08:05:40.376Z,38.90
2019-04-06T08:08:09.218Z,37.67
2019-04-06T08:10:38.199Z,37.60
2019-04-06T08:13:06.975Z,38.75
2019-04-06T08:15:35.815Z,39.20
2019-04-06T08:18:04.626Z,38.78
2019-04-06T08:20:33.375Z,37.88
2019-04-06T08:23:02.218Z,38.02
2019-04-06T08:25:31.061Z,38.45
2019-04-06T08:27:59.855Z,39.38
2019-04-06T08:30:28.796Z,54.15
2019-04-06T08:32:57.626Z,48.83
2019-04-06T08:35:26.914Z,47.40
2019-04-06T08:37:55.775Z,44.67
2019-04-06T08:40:24.576Z,40.90
2019-04-06T08:42:53.384Z,38.15
2019-04-06T08:45:22.215Z,38.83
2019-04-06T08:47:51.015Z,44.15
2019-04-06T08:50:19.815Z,38.90
2019-04-06T08:52:48.655Z,38.33
2019-04-06T08:55:17.455Z,40.38
2019-04-06T08:57:46.256Z,38.95
2019-04-06T09:00:16.504Z,38.70
2019-04-06T09:02:45.375Z,38.90
2019-04-06T09:05:14.295Z,39.25
2019-04-06T09:07:43.422Z,38.13
2019-04-06T09:10:12.420Z,37.80
2019-04-06T09:12:41.225Z,38.13
2019-04-06T09:15:10.576Z,36.63
2019-04-06T09:17:39.498Z,38.95
2019-04-06T09:20:08.747Z,37.42
2019-04-06T09:22:37.626Z,38.42
2019-04-06T09:25:07.807Z,36.73
2019-04-06T09:27:36.704Z,35.95
2019-04-06T09:30:07.102Z,38.30
2019-04-06T09:32:35.935Z,37.85
2019-04-06T09:35:06.010Z,35.80
2019-04-06T09:37:41.188Z,37.53
2019-04-06T09:40:09.976Z,36.60
2019-04-06T09:42:38.788Z,36.93
2019-04-06T09:45:15.112Z,35.95
2019-04-06T09:47:46.335Z,35.33
2019-04-06T09:50:17.749Z,35.98
2019-04-06T09:52:51.159Z,36.00
2019-04-06T09:55:21.968Z,36.45
2019-04-06T09:58:08.988Z,38.20
2019-04-06T10:00:54.683Z,38.08
2019-04-06T10:03:43.495Z,37.50
2019-04-06T10:06:25.455Z,37.65
2019-04-06T10:08:58.857Z,37.70
2019-04-06T10:11:34.976Z,39.18
2019-04-06T10:14:23.859Z,36.75
2019-04-06T10:16:54.225Z,38.17
2019-04-06T10:19:39.791Z,40.92
2019-04-06T10:22:13.147Z,41.85
2019-04-06T10:24:49.573Z,42.27
2019-04-06T10:27:25.890Z,43.52
2019-04-06T10:29:56.255Z,47.75
2019-04-06T10:32:29.604Z,47.00
2019-04-06T10:35:09.281Z,48.70
2019-04-06T10:37:39.630Z,47.27
2019-04-06T10:40:12.816Z,46.70
2019-04-06T10:42:43.181Z,46.02
2019-04-06T10:45:16.498Z,45.00
2019-04-06T10:48:03.015Z,45.45
2019-04-06T10:50:36.533Z,44.45
2019-04-06T10:53:23.464Z,45.50
2019-04-06T10:55:56.944Z,45.38
2019-04-06T10:58:43.684Z,49.95
2019-04-06T11:01:19.904Z,55.55
2019-04-06T11:04:10.897Z,56.98
2019-04-06T11:06:56.977Z,63.92
2019-04-06T11:09:27.378Z,52.43
2019-04-06T11:12:00.226Z,53.05
2019-04-06T11:14:45.983Z,49.55
2019-04-06T11:17:28.416Z,45.55
2019-04-06T11:20:14.177Z,44.93
2019-04-06T11:22:44.703Z,44.18
2019-04-06T11:25:15.105Z,46.92
2019-04-06T11:27:48.336Z,47.80
2019-04-06T11:30:19.265Z,46.15
2019-04-06T11:33:05.838Z,43.75
2019-04-06T11:35:36.663Z,44.42
2019-04-06T11:38:07.102Z,46.88
2019-04-06T11:40:49.697Z,47.98
2019-04-06T11:43:35.258Z,48.80
2019-04-06T11:46:05.944Z,46.35
2019-04-06T11:48:42.219Z,49.30
2019-04-06T11:51:28.855Z,50.05
2019-04-06T11:54:05.631Z,51.28
2019-04-06T11:56:52.269Z,51.92
2019-04-06T11:59:22.898Z,55.63
2019-04-06T12:02:09.336Z,51.50
2019-04-06T12:04:45.497Z,36.85
2019-04-06T12:07:27.840Z,29.82
2019-04-06T12:10:13.407Z,22.02
2019-04-06T12:12:55.568Z,24.02
2019-04-06T12:15:36.895Z,22.37
2019-04-06T12:18:19.376Z,21.73
2019-04-06T12:21:01.943Z,16.05
2019-04-06T12:23:50.615Z,16.73
2019-04-06T12:26:26.543Z,13.50
2019-04-06T12:29:15.782Z,13.08
2019-04-06T12:32:01.655Z,11.63
2019-04-06T12:34:32.133Z,11.75
2019-04-06T12:37:19.015Z,10.25
2019-04-06T12:39:53.441Z,9.68
2019-04-06T12:42:21.644Z,9.30
2019-04-06T12:44:54.824Z,10.50
2019-04-06T12:47:41.884Z,9.15
2019-04-06T12:50:18.735Z,8.78
2019-04-06T12:52:55.335Z,8.35
2019-04-06T12:55:26.111Z,8.63
2019-04-06T12:58:13.445Z,8.65
2019-04-06T13:00:53.067Z,8.23
2019-04-06T13:03:25.896Z,6.83
2019-04-06T13:06:15.034Z,6.87
2019-04-06T13:08:45.871Z,5.72
2019-04-06T13:11:19.484Z,5.47
2019-04-06T13:13:49.387Z,5.53
2019-04-06T13:16:29.259Z,5.03
2019-04-06T13:19:03.549Z,5.30
2019-04-06T13:21:40.268Z,4.80
2019-04-06T13:24:14.948Z,4.83
2019-04-06T13:26:49.779Z,4.75
2019-04-06T13:29:21.348Z,4.53
2019-04-06T13:31:52.150Z,5.33
2019-04-06T13:34:39.370Z,5.78
2019-04-06T13:37:10.786Z,5.47
2019-04-06T13:39:58.175Z,4.95
2019-04-06T13:42:31.455Z,4.45
2019-04-06T13:45:02.628Z,5.55
2019-04-06T13:47:41.391Z,4.17
2019-04-06T13:50:21.958Z,4.17
2019-04-06T13:52:56.996Z,5.28
2019-04-06T13:55:28.240Z,4.42
2019-04-06T13:58:15.570Z,4.25
2019-04-06T14:01:13.311Z,4.22
2019-04-06T14:03:51.240Z,3.87
2019-04-06T14:06:40.046Z,3.52
2019-04-06T14:09:12.107Z,3.30
2019-04-06T14:11:58.962Z,3.80
2019-04-06T14:20:47.900Z,3.60
2019-04-06T14:23:24.150Z,3.20
2019-04-06T14:26:01.070Z,2.87
2019-04-06T14:28:35.021Z,3.00
2019-04-06T14:31:11.376Z,3.00
2019-04-06T14:33:45.152Z,2.87
2019-04-06T14:36:16.133Z,3.17
2019-04-06T14:38:47.803Z,3.02
2019-04-06T14:41:25.257Z,4.17
2019-04-06T14:44:02.269Z,3.75
2019-04-06T14:46:35.857Z,2.30
2019-04-06T14:49:28.873Z,4.08
2019-04-06T14:51:57.929Z,6.08
2019-04-06T14:54:44.392Z,5.25
2019-04-06T14:57:24.740Z,4.25
2019-04-06T14:59:55.788Z,4.53
2019-04-06T15:02:35.913Z,4.05
2019-04-06T15:05:23.940Z,4.90
2019-04-06T15:08:11.374Z,4.72
2019-04-06T15:10:45.425Z,4.50
2019-04-06T15:16:02.068Z,5.03
2019-04-06T15:18:42.404Z,6.30
2019-04-06T15:21:28.303Z,6.20
2019-04-06T15:24:02.500Z,6.50
2019-04-06T15:26:49.721Z,6.80
2019-04-06T15:29:27.453Z,8.35
2019-04-06T15:32:04.707Z,7.42
2019-04-06T15:34:42.017Z,9.55
2019-04-06T15:37:19.298Z,8.80
2019-04-06T15:40:06.284Z,9.78
2019-04-06T15:42:37.568Z,9.35
2019-04-06T15:45:24.467Z,8.63
2019-04-06T15:47:55.505Z,8.88
2019-04-06T15:50:32.696Z,8.93
2019-04-06T15:53:03.615Z,7.78
2019-04-06T15:55:40.564Z,6.87
2019-04-06T15:58:11.758Z,4.65
2019-04-06T16:00:58.978Z,7.72
2019-04-06T16:03:41.464Z,4.85
2019-04-06T16:06:12.605Z,3.75
2019-04-06T16:08:47.256Z,6.20
2019-04-06T16:11:34.631Z,3.42
2019-04-06T16:14:22.698Z,4.28
2019-04-06T16:17:12.496Z,4.30
2019-04-06T16:19:43.415Z,3.30
2019-04-06T16:22:14.146Z,3.70
2019-04-06T16:24:51.300Z,4.10
2019-04-06T16:27:25.654Z,4.67
2019-04-06T16:30:02.698Z,5.60
2019-04-06T16:32:49.335Z,3.95
2019-04-06T16:35:35.719Z,3.40
2019-04-06T16:38:23.123Z,3.75
2019-04-06T16:41:03.627Z,4.00
2019-04-06T16:43:38.403Z,4.12
2019-04-06T16:46:21.947Z,4.10
2019-04-06T16:48:55.786Z,4.30
2019-04-06T16:51:36.556Z,4.78
2019-04-06T16:54:07.778Z,4.97
2019-04-06T16:56:41.825Z,4.08
2019-04-06T16:59:28.940Z,4.30
2019-04-06T17:02:22.060Z,6.67
2019-04-06T17:05:02.541Z,5.30
2019-04-06T17:07:36.827Z,5.42
2019-04-06T17:10:12.598Z,5.70
2019-04-06T17:12:43.655Z,6.95
2019-04-06T17:15:15.297Z,8.48
2019-04-06T17:17:46.791Z,9.88
2019-04-06T17:20:23.904Z,12.53
2019-04-06T17:22:57.736Z,12.68
2019-04-06T17:25:46.697Z,13.50
2019-04-06T17:28:34.077Z,14.45
2019-04-06T17:31:21.833Z,8.90
2019-04-06T17:33:53.195Z,10.53
2019-04-06T17:36:39.696Z,11.45
2019-04-06T17:39:28.977Z,14.43
2019-04-06T17:42:03.335Z,17.60
2019-04-06T17:44:34.867Z,21.80
2019-04-06T17:47:06.297Z,21.95
2019-04-06T17:49:40.034Z,19.90
2019-04-06T17:52:10.945Z,21.12
2019-04-06T17:54:59.007Z,17.00
2019-04-06T17:57:39.456Z,17.20
2019-04-06T18:00:27.562Z,19.37
2019-04-06T18:02:58.692Z,21.68
2019-04-06T18:05:44.938Z,17.77
2019-04-06T18:08:34.105Z,18.20
2019-04-06T18:11:11.346Z,17.75
2019-04-06T18:13:49.267Z,19.92
2019-04-06T18:16:20.874Z,17.45
2019-04-06T18:18:52.131Z,14.80
2019-04-06T18:21:21.667Z,11.95
2019-04-06T18:23:51.679Z,14.28
2019-04-06T18:26:21.858Z,16.32
2019-04-06T18:28:51.706Z,15.78
2019-04-06T18:31:23.065Z,14.60
2019-04-06T18:33:53.585Z,12.95
2019-04-06T18:36:25.373Z,9.08
2019-04-06T18:39:02.833Z,8.60
2019-04-06T18:41:32.665Z,17.55
2019-04-06T18:44:02.522Z,25.50
2019-04-06T18:46:32.797Z,42.03
2019-04-06T18:49:03.265Z,34.43
2019-04-06T18:51:32.812Z,19.12
2019-04-06T18:54:03.046Z,18.23
2019-04-06T18:56:32.867Z,19.42
2019-04-06T18:59:02.945Z,16.37
2019-04-06T19:01:32.781Z,19.75
2019-04-06T19:04:02.483Z,25.32
2019-04-06T19:06:32.602Z,25.95
2019-04-06T19:09:01.998Z,23.45
2019-04-06T19:11:31.612Z,25.25
2019-04-06T19:14:01.225Z,23.70
2019-04-06T19:16:31.189Z,23.38
2019-04-06T19:19:01.378Z,25.45
2019-04-06T19:21:32.094Z,31.65
2019-04-06T19:24:02.305Z,27.37
2019-04-06T19:26:32.234Z,25.62
2019-04-06T19:29:02.770Z,27.65
2019-04-06T19:31:32.698Z,25.23
2019-04-06T19:34:02.584Z,25.65
2019-04-06T19:36:32.084Z,23.38
2019-04-06T19:39:01.381Z,22.85
2019-04-06T19:41:31.506Z,23.00
2019-04-06T19:44:01.402Z,24.23
2019-04-06T19:46:30.948Z,38.53
2019-04-06T19:49:01.187Z,24.52
2019-04-06T19:51:30.901Z,18.60
2019-04-06T19:54:00.432Z,17.75
2019-04-06T19:56:30.386Z,18.62
2019-04-06T19:58:59.947Z,21.50
2019-04-06T20:01:29.785Z,26.73
2019-04-06T20:03:59.617Z,30.43
2019-04-06T20:06:29.708Z,19.52
2019-04-06T20:08:59.490Z,22.32
2019-04-06T20:11:29.905Z,20.17
2019-04-06T20:13:59.257Z,23.62
2019-04-06T20:16:28.655Z,25.05
2019-04-06T20:18:58.639Z,25.12
2019-04-06T20:21:29.668Z,27.25
2019-04-06T20:23:59.096Z,48.63
2019-04-06T20:26:32.237Z,23.05
2019-04-06T20:29:01.585Z,21.05
2019-04-06T20:31:30.895Z,21.97
2019-04-06T20:34:00.903Z,30.52
2019-04-06T20:36:32.356Z,90.72
2019-04-06T20:39:02.027Z,38.63
2019-04-06T20:41:32.133Z,37.53
2019-04-06T20:44:01.655Z,52.45
2019-04-06T20:46:31.892Z,43.08
2019-04-06T20:49:01.140Z,48.58
2019-04-06T20:51:31.605Z,49.35
2019-04-06T20:54:01.435Z,31.42
2019-04-06T20:56:31.526Z,33.60
2019-04-06T20:59:01.527Z,32.73
2019-04-06T21:01:31.495Z,60.15
2019-04-06T21:04:03.034Z,54.85
2019-04-06T21:06:33.434Z,34.03
2019-04-06T21:09:03.263Z,27.90
2019-04-06T21:11:32.776Z,22.13
2019-04-06T21:14:03.339Z,25.43
2019-04-06T21:16:33.164Z,27.00
2019-04-06T21:19:02.619Z,28.50
2019-04-06T21:21:32.650Z,25.43
2019-04-06T21:24:02.554Z,22.05
2019-04-06T21:26:32.525Z,27.58
2019-04-06T21:29:02.560Z,21.97
2019-04-06T21:31:32.098Z,23.10
2019-04-06T21:34:10.560Z,22.85
2019-04-06T21:36:33.443Z,23.00
2019-04-06T21:39:03.057Z,30.20
2019-04-06T21:41:32.971Z,35.90
2019-04-06T21:44:03.334Z,30.88
2019-04-06T21:46:33.644Z,32.40
2019-04-06T21:49:03.554Z,35.85
2019-04-06T21:51:33.145Z,39.38
2019-04-06T21:54:03.132Z,32.85
2019-04-06T21:56:32.835Z,28.30
2019-04-06T21:59:02.819Z,28.17
2019-04-06T22:01:33.103Z,24.23
2019-04-06T22:04:03.147Z,19.85
2019-04-06T22:06:32.688Z,20.52
2019-04-06T22:09:02.765Z,20.10
2019-04-06T22:11:33.211Z,20.40
2019-04-06T22:14:02.469Z,28.00
2019-04-06T22:16:32.552Z,33.75
2019-04-06T22:19:01.988Z,22.10
2019-04-06T22:21:32.069Z,22.73
2019-04-06T22:24:01.511Z,27.52
2019-04-06T22:26:30.899Z,26.48
2019-04-06T22:29:00.545Z,32.33
2019-04-06T22:31:30.745Z,24.43
2019-04-06T22:34:00.465Z,22.07
2019-04-06T22:36:29.855Z,113.60
2019-04-06T22:38:59.426Z,55.43
2019-04-06T22:41:28.985Z,35.40
2019-04-06T22:43:58.245Z,28.42
2019-04-06T22:46:27.924Z,26.25
2019-04-06T22:48:57.502Z,28.32
2019-04-06T22:51:27.342Z,33.75
2019-04-06T22:53:56.968Z,34.35
2019-04-06T22:56:26.375Z,28.00
2019-04-06T22:58:55.855Z,25.62
2019-04-06T23:01:26.712Z,29.30
2019-04-06T23:04:17.101Z,23.95
2019-04-06T23:06:55.152Z,21.55
2019-04-06T23:09:24.865Z,22.52
2019-04-06T23:11:54.457Z,22.80
2019-04-06T23:14:24.017Z,23.22
2019-04-06T23:16:54.060Z,25.40
2019-04-06T23:19:23.897Z,23.40
2019-04-06T23:21:53.456Z,27.50
2019-04-06T23:24:22.935Z,23.75
2019-04-06T23:26:52.987Z,24.25
2019-04-06T23:29:22.215Z,22.73
2019-04-06T23:31:52.140Z,22.05
2019-04-06T23:34:21.955Z,26.02
2019-04-06T23:36:52.214Z,23.07
2019-04-06T23:39:22.867Z,22.87
2019-04-06T23:41:52.175Z,20.15
2019-04-06T23:44:21.697Z,27.62
2019-04-06T23:46:51.182Z,30.50
2019-04-06T23:49:20.771Z,33.48
2019-04-06T23:51:50.803Z,30.45
2019-04-06T23:54:20.510Z,31.55
2019-04-06T23:56:51.250Z,31.37
2019-04-06T23:59:20.993Z,34.05
